sensor_id;sensor_type;location;lat;lon;timestamp;P1;durP1;ratioP1;P2;durP2;ratioP2
24157;SDS011;12316;50.904;4.200;2022-09-17T00:00:57;11.05;;;1.38;;
24157;SDS011;12316;50.904;4.200;2022-09-17T00:03:24;10.25;;;1.80;;
24157;SDS011;12316;50.904;4.200;2022-09-17T00:05:57;13.48;;;1.80;;
24157;SDS011;12316;50.904;4.200;2022-09-17T00:08:24;7.30;;;1.48;;
24157;SDS011;12316;50.904;4.200;2022-09-17T00:10:50;10.27;;;1.48;;
24157;SDS011;12316;50.904;4.200;2022-09-17T00:13:15;15.27;;;1.70;;
24157;SDS011;12316;50.904;4.200;2022-09-17T00:15:42;10.35;;;1.75;;
24157;SDS011;12316;50.904;4.200;2022-09-17T00:18:09;9.60;;;1.42;;
24157;SDS011;12316;50.904;4.200;2022-09-17T00:20:44;6.72;;;1.60;;
24157;SDS011;12316;50.904;4.200;2022-09-17T00:23:11;11.27;;;1.48;;
24157;SDS011;12316;50.904;4.200;2022-09-17T00:25:38;8.10;;;1.40;;
24157;SDS011;12316;50.904;4.200;2022-09-17T00:28:05;8.82;;;1.40;;
24157;SDS011;12316;50.904;4.200;2022-09-17T00:30:34;12.57;;;1.65;;
24157;SDS011;12316;50.904;4.200;2022-09-17T00:32:59;14.35;;;2.03;;
24157;SDS011;12316;50.904;4.200;2022-09-17T00:35:25;10.40;;;1.50;;
24157;SDS011;12316;50.904;4.200;2022-09-17T00:37:52;14.88;;;1.92;;
24157;SDS011;12316;50.904;4.200;2022-09-17T00:40:18;12.98;;;1.92;;
24157;SDS011;12316;50.904;4.200;2022-09-17T00:42:45;13.93;;;1.95;;
24157;SDS011;12316;50.904;4.200;2022-09-17T00:45:11;10.43;;;1.80;;
24157;SDS011;12316;50.904;4.200;2022-09-17T00:47:39;10.68;;;1.83;;
24157;SDS011;12316;50.904;4.200;2022-09-17T00:50:13;11.05;;;1.70;;
24157;SDS011;12316;50.904;4.200;2022-09-17T00:52:45;10.73;;;1.80;;
24157;SDS011;12316;50.904;4.200;2022-09-17T00:55:17;7.35;;;1.42;;
24157;SDS011;12316;50.904;4.200;2022-09-17T00:57:50;14.25;;;2.10;;
24157;SDS011;12316;50.904;4.200;2022-09-17T01:00:19;11.48;;;1.67;;
24157;SDS011;12316;50.904;4.200;2022-09-17T01:02:45;10.02;;;2.00;;
24157;SDS011;12316;50.904;4.200;2022-09-17T01:05:11;11.73;;;1.88;;
24157;SDS011;12316;50.904;4.200;2022-09-17T01:07:41;11.13;;;1.77;;
24157;SDS011;12316;50.904;4.200;2022-09-17T01:18:12;13.82;;;2.10;;
24157;SDS011;12316;50.904;4.200;2022-09-17T01:31:58;16.67;;;2.17;;
24157;SDS011;12316;50.904;4.200;2022-09-17T01:40:29;12.32;;;2.15;;
24157;SDS011;12316;50.904;4.200;2022-09-17T01:45:33;22.00;;;2.38;;
24157;SDS011;12316;50.904;4.200;2022-09-17T01:50:36;13.95;;;1.85;;
24157;SDS011;12316;50.904;4.200;2022-09-17T01:53:24;11.93;;;1.75;;
24157;SDS011;12316;50.904;4.200;2022-09-17T01:58:27;10.98;;;1.90;;
24157;SDS011;12316;50.904;4.200;2022-09-17T02:00:59;14.60;;;2.25;;
24157;SDS011;12316;50.904;4.200;2022-09-17T02:03:38;12.57;;;2.30;;
24157;SDS011;12316;50.904;4.200;2022-09-17T02:06:10;12.10;;;2.38;;
24157;SDS011;12316;50.904;4.200;2022-09-17T02:11:17;12.00;;;1.85;;
24157;SDS011;12316;50.904;4.200;2022-09-17T02:16:13;12.15;;;1.88;;
24157;SDS011;12316;50.904;4.200;2022-09-17T02:18:45;13.23;;;1.95;;
24157;SDS011;12316;50.904;4.200;2022-09-17T02:21:22;13.15;;;1.80;;
24157;SDS011;12316;50.904;4.200;2022-09-17T02:26:43;13.18;;;2.35;;
24157;SDS011;12316;50.904;4.200;2022-09-17T02:32:11;14.40;;;2.53;;
24157;SDS011;12316;50.904;4.200;2022-09-17T02:34:37;15.00;;;2.38;;
24157;SDS011;12316;50.904;4.200;2022-09-17T02:37:04;12.45;;;2.50;;
24157;SDS011;12316;50.904;4.200;2022-09-17T02:39:30;11.30;;;1.90;;
24157;SDS011;12316;50.904;4.200;2022-09-17T02:58:20;12.70;;;2.30;;
24157;SDS011;12316;50.904;4.200;2022-09-17T03:00:54;15.00;;;2.30;;
24157;SDS011;12316;50.904;4.200;2022-09-17T03:03:28;14.38;;;2.35;;
24157;SDS011;12316;50.904;4.200;2022-09-17T03:06:01;11.93;;;2.17;;
24157;SDS011;12316;50.904;4.200;2022-09-17T03:08:31;8.45;;;1.67;;
24157;SDS011;12316;50.904;4.200;2022-09-17T03:11:00;13.55;;;2.22;;
24157;SDS011;12316;50.904;4.200;2022-09-17T03:13:26;7.57;;;1.77;;
24157;SDS011;12316;50.904;4.200;2022-09-17T03:15:51;8.32;;;1.90;;
24157;SDS011;12316;50.904;4.200;2022-09-17T03:18:17;14.02;;;2.10;;
24157;SDS011;12316;50.904;4.200;2022-09-17T03:20:44;15.63;;;2.30;;
24157;SDS011;12316;50.904;4.200;2022-09-17T03:23:10;15.25;;;2.67;;
24157;SDS011;12316;50.904;4.200;2022-09-17T03:25:36;14.02;;;2.40;;
24157;SDS011;12316;50.904;4.200;2022-09-17T03:28:01;16.15;;;2.50;;
24157;SDS011;12316;50.904;4.200;2022-09-17T03:30:27;12.73;;;2.20;;
24157;SDS011;12316;50.904;4.200;2022-09-17T03:32:53;15.88;;;2.45;;
24157;SDS011;12316;50.904;4.200;2022-09-17T03:35:18;11.05;;;1.95;;
24157;SDS011;12316;50.904;4.200;2022-09-17T03:37:45;13.60;;;2.08;;
24157;SDS011;12316;50.904;4.200;2022-09-17T03:40:11;14.20;;;2.00;;
24157;SDS011;12316;50.904;4.200;2022-09-17T03:42:37;11.90;;;2.03;;
24157;SDS011;12316;50.904;4.200;2022-09-17T03:45:02;14.82;;;2.00;;
24157;SDS011;12316;50.904;4.200;2022-09-17T03:47:28;15.95;;;2.35;;
24157;SDS011;12316;50.904;4.200;2022-09-17T03:49:54;18.45;;;2.60;;
24157;SDS011;12316;50.904;4.200;2022-09-17T03:52:20;13.43;;;2.28;;
24157;SDS011;12316;50.904;4.200;2022-09-17T03:54:46;15.18;;;2.40;;
24157;SDS011;12316;50.904;4.200;2022-09-17T03:57:13;17.50;;;2.55;;
24157;SDS011;12316;50.904;4.200;2022-09-17T03:59:39;17.83;;;2.30;;
24157;SDS011;12316;50.904;4.200;2022-09-17T04:02:04;18.67;;;2.20;;
24157;SDS011;12316;50.904;4.200;2022-09-17T04:04:30;20.17;;;2.45;;
24157;SDS011;12316;50.904;4.200;2022-09-17T04:06:56;15.20;;;2.28;;
24157;SDS011;12316;50.904;4.200;2022-09-17T04:09:22;20.65;;;2.50;;
24157;SDS011;12316;50.904;4.200;2022-09-17T04:11:48;15.35;;;2.22;;
24157;SDS011;12316;50.904;4.200;2022-09-17T04:14:13;21.95;;;3.00;;
24157;SDS011;12316;50.904;4.200;2022-09-17T04:16:39;19.27;;;2.80;;
24157;SDS011;12316;50.904;4.200;2022-09-17T04:19:04;21.15;;;2.72;;
24157;SDS011;12316;50.904;4.200;2022-09-17T04:21:30;16.45;;;2.25;;
24157;SDS011;12316;50.904;4.200;2022-09-17T04:23:55;15.60;;;2.17;;
24157;SDS011;12316;50.904;4.200;2022-09-17T04:26:22;23.27;;;3.10;;
24157;SDS011;12316;50.904;4.200;2022-09-17T04:28:47;25.63;;;3.45;;
24157;SDS011;12316;50.904;4.200;2022-09-17T04:31:13;21.80;;;2.75;;
24157;SDS011;12316;50.904;4.200;2022-09-17T04:33:38;22.42;;;2.83;;
24157;SDS011;12316;50.904;4.200;2022-09-17T04:36:04;20.52;;;2.67;;
24157;SDS011;12316;50.904;4.200;2022-09-17T04:38:30;23.40;;;2.70;;
24157;SDS011;12316;50.904;4.200;2022-09-17T04:40:57;25.17;;;2.90;;
24157;SDS011;12316;50.904;4.200;2022-09-17T04:43:23;25.95;;;2.85;;
24157;SDS011;12316;50.904;4.200;2022-09-17T04:45:49;21.58;;;2.72;;
24157;SDS011;12316;50.904;4.200;2022-09-17T04:48:15;15.43;;;2.67;;
24157;SDS011;12316;50.904;4.200;2022-09-17T04:50:40;18.98;;;2.80;;
24157;SDS011;12316;50.904;4.200;2022-09-17T04:53:07;21.67;;;3.15;;
24157;SDS011;12316;50.904;4.200;2022-09-17T04:55:33;17.77;;;2.60;;
24157;SDS011;12316;50.904;4.200;2022-09-17T04:57:58;25.10;;;2.83;;
24157;SDS011;12316;50.904;4.200;2022-09-17T05:00:24;19.58;;;2.78;;
24157;SDS011;12316;50.904;4.200;2022-09-17T05:02:51;18.77;;;2.60;;
24157;SDS011;12316;50.904;4.200;2022-09-17T05:05:18;19.60;;;2.67;;
24157;SDS011;12316;50.904;4.200;2022-09-17T05:07:44;20.83;;;2.60;;
24157;SDS011;12316;50.904;4.200;2022-09-17T05:10:10;22.52;;;2.50;;
24157;SDS011;12316;50.904;4.200;2022-09-17T05:12:38;16.15;;;2.50;;
24157;SDS011;12316;50.904;4.200;2022-09-17T05:15:04;23.20;;;3.13;;
24157;SDS011;12316;50.904;4.200;2022-09-17T05:17:30;16.02;;;2.45;;
24157;SDS011;12316;50.904;4.200;2022-09-17T05:19:55;20.52;;;2.50;;
24157;SDS011;12316;50.904;4.200;2022-09-17T05:22:21;18.83;;;2.58;;
24157;SDS011;12316;50.904;4.200;2022-09-17T05:24:47;18.05;;;2.53;;
24157;SDS011;12316;50.904;4.200;2022-09-17T05:27:12;20.00;;;2.78;;
24157;SDS011;12316;50.904;4.200;2022-09-17T05:29:38;16.35;;;2.42;;
24157;SDS011;12316;50.904;4.200;2022-09-17T05:32:04;16.63;;;2.58;;
24157;SDS011;12316;50.904;4.200;2022-09-17T05:34:30;17.27;;;2.35;;
24157;SDS011;12316;50.904;4.200;2022-09-17T05:36:55;17.75;;;2.55;;
24157;SDS011;12316;50.904;4.200;2022-09-17T05:39:21;15.93;;;2.30;;
24157;SDS011;12316;50.904;4.200;2022-09-17T05:41:49;14.80;;;2.25;;
24157;SDS011;12316;50.904;4.200;2022-09-17T05:44:16;15.18;;;2.30;;
24157;SDS011;12316;50.904;4.200;2022-09-17T05:46:42;13.52;;;1.95;;
24157;SDS011;12316;50.904;4.200;2022-09-17T05:49:07;14.77;;;2.10;;
24157;SDS011;12316;50.904;4.200;2022-09-17T05:51:33;17.52;;;2.03;;
24157;SDS011;12316;50.904;4.200;2022-09-17T05:53:59;14.60;;;2.17;;
24157;SDS011;12316;50.904;4.200;2022-09-17T05:56:24;12.88;;;2.08;;
24157;SDS011;12316;50.904;4.200;2022-09-17T05:58:53;12.80;;;2.08;;
24157;SDS011;12316;50.904;4.200;2022-09-17T06:01:20;10.90;;;2.00;;
24157;SDS011;12316;50.904;4.200;2022-09-17T06:03:46;14.88;;;1.90;;
24157;SDS011;12316;50.904;4.200;2022-09-17T06:06:12;14.40;;;2.10;;
24157;SDS011;12316;50.904;4.200;2022-09-17T06:08:37;14.85;;;2.03;;
24157;SDS011;12316;50.904;4.200;2022-09-17T06:11:06;13.68;;;2.15;;
24157;SDS011;12316;50.904;4.200;2022-09-17T06:13:32;15.05;;;1.92;;
24157;SDS011;12316;50.904;4.200;2022-09-17T06:15:59;14.68;;;1.90;;
24157;SDS011;12316;50.904;4.200;2022-09-17T06:18:26;14.05;;;2.30;;
24157;SDS011;12316;50.904;4.200;2022-09-17T06:20:57;13.95;;;2.05;;
24157;SDS011;12316;50.904;4.200;2022-09-17T06:23:24;9.43;;;1.80;;
24157;SDS011;12316;50.904;4.200;2022-09-17T06:25:54;10.95;;;1.90;;
24157;SDS011;12316;50.904;4.200;2022-09-17T06:28:21;13.90;;;1.90;;
24157;SDS011;12316;50.904;4.200;2022-09-17T06:30:47;13.27;;;1.88;;
24157;SDS011;12316;50.904;4.200;2022-09-17T06:33:13;7.40;;;1.55;;
24157;SDS011;12316;50.904;4.200;2022-09-17T06:35:39;15.75;;;2.03;;
24157;SDS011;12316;50.904;4.200;2022-09-17T06:38:04;13.80;;;2.40;;
24157;SDS011;12316;50.904;4.200;2022-09-17T06:40:30;7.80;;;1.60;;
24157;SDS011;12316;50.904;4.200;2022-09-17T06:42:56;10.52;;;1.70;;
24157;SDS011;12316;50.904;4.200;2022-09-17T06:45:25;11.43;;;1.95;;
24157;SDS011;12316;50.904;4.200;2022-09-17T06:47:51;13.88;;;2.20;;
24157;SDS011;12316;50.904;4.200;2022-09-17T06:50:17;14.70;;;2.13;;
24157;SDS011;12316;50.904;4.200;2022-09-17T06:52:52;12.52;;;2.55;;
24157;SDS011;12316;50.904;4.200;2022-09-17T06:55:18;13.20;;;2.10;;
24157;SDS011;12316;50.904;4.200;2022-09-17T06:57:45;15.52;;;2.15;;
24157;SDS011;12316;50.904;4.200;2022-09-17T07:00:13;14.57;;;2.10;;
24157;SDS011;12316;50.904;4.200;2022-09-17T07:02:39;10.32;;;2.13;;
24157;SDS011;12316;50.904;4.200;2022-09-17T07:05:05;13.25;;;2.10;;
24157;SDS011;12316;50.904;4.200;2022-09-17T07:07:31;13.07;;;2.28;;
24157;SDS011;12316;50.904;4.200;2022-09-17T07:09:58;9.48;;;2.00;;
24157;SDS011;12316;50.904;4.200;2022-09-17T07:12:24;12.23;;;2.00;;
24157;SDS011;12316;50.904;4.200;2022-09-17T07:14:50;14.00;;;2.58;;
24157;SDS011;12316;50.904;4.200;2022-09-17T07:17:15;12.60;;;1.95;;
24157;SDS011;12316;50.904;4.200;2022-09-17T07:19:41;11.48;;;2.17;;
24157;SDS011;12316;50.904;4.200;2022-09-17T07:22:08;10.73;;;1.70;;
24157;SDS011;12316;50.904;4.200;2022-09-17T07:24:33;12.77;;;1.90;;
24157;SDS011;12316;50.904;4.200;2022-09-17T07:27:00;13.98;;;2.33;;
24157;SDS011;12316;50.904;4.200;2022-09-17T07:29:25;11.30;;;2.10;;
24157;SDS011;12316;50.904;4.200;2022-09-17T07:31:52;9.50;;;1.90;;
24157;SDS011;12316;50.904;4.200;2022-09-17T07:34:18;14.35;;;2.45;;
24157;SDS011;12316;50.904;4.200;2022-09-17T07:36:44;12.88;;;2.35;;
24157;SDS011;12316;50.904;4.200;2022-09-17T07:39:10;11.95;;;1.88;;
24157;SDS011;12316;50.904;4.200;2022-09-17T07:41:37;12.20;;;2.03;;
24157;SDS011;12316;50.904;4.200;2022-09-17T07:44:03;11.90;;;2.15;;
24157;SDS011;12316;50.904;4.200;2022-09-17T07:46:31;13.77;;;2.10;;
24157;SDS011;12316;50.904;4.200;2022-09-17T07:48:57;9.90;;;1.65;;
24157;SDS011;12316;50.904;4.200;2022-09-17T07:51:24;9.82;;;2.30;;
24157;SDS011;12316;50.904;4.200;2022-09-17T07:53:52;11.40;;;1.90;;
24157;SDS011;12316;50.904;4.200;2022-09-17T07:56:20;11.32;;;2.13;;
24157;SDS011;12316;50.904;4.200;2022-09-17T07:58:46;9.52;;;1.80;;
24157;SDS011;12316;50.904;4.200;2022-09-17T08:01:12;11.13;;;1.67;;
24157;SDS011;12316;50.904;4.200;2022-09-17T08:03:42;9.43;;;1.60;;
24157;SDS011;12316;50.904;4.200;2022-09-17T08:06:13;13.35;;;2.05;;
24157;SDS011;12316;50.904;4.200;2022-09-17T08:08:41;10.77;;;1.95;;
24157;SDS011;12316;50.904;4.200;2022-09-17T08:11:08;11.85;;;2.30;;
24157;SDS011;12316;50.904;4.200;2022-09-17T08:13:39;15.10;;;3.50;;
24157;SDS011;12316;50.904;4.200;2022-09-17T08:16:07;14.88;;;5.00;;
24157;SDS011;12316;50.904;4.200;2022-09-17T08:18:39;14.27;;;5.18;;
24157;SDS011;12316;50.904;4.200;2022-09-17T08:21:08;17.50;;;5.20;;
24157;SDS011;12316;50.904;4.200;2022-09-17T08:23:36;12.88;;;4.55;;
24157;SDS011;12316;50.904;4.200;2022-09-17T08:26:03;13.90;;;4.75;;
24157;SDS011;12316;50.904;4.200;2022-09-17T08:28:31;13.52;;;3.88;;
24157;SDS011;12316;50.904;4.200;2022-09-17T08:31:03;9.93;;;2.83;;
24157;SDS011;12316;50.904;4.200;2022-09-17T08:33:31;11.23;;;2.60;;
24157;SDS011;12316;50.904;4.200;2022-09-17T08:35:57;10.35;;;2.58;;
24157;SDS011;12316;50.904;4.200;2022-09-17T08:38:24;7.75;;;1.90;;
24157;SDS011;12316;50.904;4.200;2022-09-17T08:41:09;9.02;;;2.50;;
24157;SDS011;12316;50.904;4.200;2022-09-17T08:43:45;11.10;;;1.77;;
24157;SDS011;12316;50.904;4.200;2022-09-17T08:49:15;7.45;;;1.58;;
24157;SDS011;12316;50.904;4.200;2022-09-17T08:51:51;11.73;;;1.60;;
24157;SDS011;12316;50.904;4.200;2022-09-17T08:57:22;10.93;;;1.60;;
24157;SDS011;12316;50.904;4.200;2022-09-17T09:00:08;7.57;;;1.88;;
24157;SDS011;12316;50.904;4.200;2022-09-17T09:08:13;7.20;;;1.67;;
24157;SDS011;12316;50.904;4.200;2022-09-17T09:10:48;7.82;;;1.75;;
24157;SDS011;12316;50.904;4.200;2022-09-17T09:13:20;8.35;;;1.60;;
24157;SDS011;12316;50.904;4.200;2022-09-17T09:15:58;11.57;;;1.40;;
24157;SDS011;12316;50.904;4.200;2022-09-17T09:18:45;6.72;;;1.23;;
24157;SDS011;12316;50.904;4.200;2022-09-17T09:23:54;7.78;;;1.33;;
24157;SDS011;12316;50.904;4.200;2022-09-17T09:26:36;7.38;;;1.40;;
24157;SDS011;12316;50.904;4.200;2022-09-17T09:32:01;9.00;;;1.73;;
24157;SDS011;12316;50.904;4.200;2022-09-17T09:34:39;8.75;;;1.45;;
24157;SDS011;12316;50.904;4.200;2022-09-17T09:37:25;5.82;;;1.20;;
24157;SDS011;12316;50.904;4.200;2022-09-17T09:39:54;8.88;;;1.30;;
24157;SDS011;12316;50.904;4.200;2022-09-17T09:42:42;4.95;;;1.38;;
24157;SDS011;12316;50.904;4.200;2022-09-17T09:45:11;7.38;;;1.25;;
24157;SDS011;12316;50.904;4.200;2022-09-17T09:47:51;6.32;;;1.25;;
24157;SDS011;12316;50.904;4.200;2022-09-17T09:53:05;5.22;;;1.38;;
24157;SDS011;12316;50.904;4.200;2022-09-17T09:58:27;7.78;;;1.27;;
24157;SDS011;12316;50.904;4.200;2022-09-17T10:00:58;6.97;;;1.00;;
24157;SDS011;12316;50.904;4.200;2022-09-17T10:03:27;6.72;;;1.05;;
24157;SDS011;12316;50.904;4.200;2022-09-17T10:06:01;5.60;;;0.95;;
24157;SDS011;12316;50.904;4.200;2022-09-17T10:08:29;4.63;;;0.73;;
24157;SDS011;12316;50.904;4.200;2022-09-17T10:13:25;5.30;;;0.90;;
24157;SDS011;12316;50.904;4.200;2022-09-17T10:15:52;4.32;;;1.08;;
24157;SDS011;12316;50.904;4.200;2022-09-17T10:18:19;5.00;;;0.95;;
24157;SDS011;12316;50.904;4.200;2022-09-17T10:23:25;4.22;;;0.70;;
24157;SDS011;12316;50.904;4.200;2022-09-17T10:25:54;3.20;;;0.80;;
24157;SDS011;12316;50.904;4.200;2022-09-17T10:30:57;3.70;;;0.95;;
24157;SDS011;12316;50.904;4.200;2022-09-17T10:33:28;5.57;;;1.20;;
24157;SDS011;12316;50.904;4.200;2022-09-17T10:36:05;3.90;;;0.93;;
24157;SDS011;12316;50.904;4.200;2022-09-17T10:38:38;4.63;;;0.93;;
24157;SDS011;12316;50.904;4.200;2022-09-17T10:43:46;6.88;;;1.20;;
24157;SDS011;12316;50.904;4.200;2022-09-17T10:46:19;7.20;;;1.02;;
24157;SDS011;12316;50.904;4.200;2022-09-17T10:52:05;6.68;;;1.42;;
24157;SDS011;12316;50.904;4.200;2022-09-17T10:57:20;6.05;;;1.60;;
24157;SDS011;12316;50.904;4.200;2022-09-17T11:00:08;8.55;;;1.90;;
24157;SDS011;12316;50.904;4.200;2022-09-17T11:05:59;5.35;;;1.52;;
24157;SDS011;12316;50.904;4.200;2022-09-17T11:11:16;6.32;;;1.23;;
24157;SDS011;12316;50.904;4.200;2022-09-17T11:14:17;8.00;;;1.70;;
24157;SDS011;12316;50.904;4.200;2022-09-17T11:22:22;7.30;;;1.77;;
24157;SDS011;12316;50.904;4.200;2022-09-17T11:28:00;8.35;;;2.10;;
24157;SDS011;12316;50.904;4.200;2022-09-17T11:30:48;7.05;;;2.03;;
24157;SDS011;12316;50.904;4.200;2022-09-17T11:33:32;9.20;;;2.20;;
24157;SDS011;12316;50.904;4.200;2022-09-17T11:36:03;7.75;;;2.30;;
24157;SDS011;12316;50.904;4.200;2022-09-17T11:38:44;9.20;;;2.50;;
24157;SDS011;12316;50.904;4.200;2022-09-17T11:41:14;8.35;;;1.80;;
24157;SDS011;12316;50.904;4.200;2022-09-17T11:44:24;8.93;;;1.88;;
24157;SDS011;12316;50.904;4.200;2022-09-17T11:46:34;9.75;;;1.85;;
24157;SDS011;12316;50.904;4.200;2022-09-17T11:49:49;13.05;;;2.03;;
24157;SDS011;12316;50.904;4.200;2022-09-17T11:52:07;8.80;;;2.00;;
24157;SDS011;12316;50.904;4.200;2022-09-17T11:57:21;9.68;;;1.80;;
24157;SDS011;12316;50.904;4.200;2022-09-17T12:05:06;8.75;;;1.63;;
24157;SDS011;12316;50.904;4.200;2022-09-17T12:10:34;14.65;;;2.22;;
24157;SDS011;12316;50.904;4.200;2022-09-17T12:16:02;13.48;;;1.60;;
24157;SDS011;12316;50.904;4.200;2022-09-17T12:21:32;12.35;;;1.90;;
24157;SDS011;12316;50.904;4.200;2022-09-17T12:24:13;9.63;;;1.80;;
24157;SDS011;12316;50.904;4.200;2022-09-17T12:36:14;7.90;;;1.77;;
24157;SDS011;12316;50.904;4.200;2022-09-17T12:38:28;9.60;;;1.92;;
24157;SDS011;12316;50.904;4.200;2022-09-17T12:43:55;13.55;;;1.90;;
24157;SDS011;12316;50.904;4.200;2022-09-17T12:51:51;12.27;;;1.92;;
24157;SDS011;12316;50.904;4.200;2022-09-17T12:59:28;13.65;;;2.00;;
24157;SDS011;12316;50.904;4.200;2022-09-17T13:02:03;12.48;;;1.92;;
24157;SDS011;12316;50.904;4.200;2022-09-17T13:15:44;11.02;;;1.98;;
24157;SDS011;12316;50.904;4.200;2022-09-17T13:18:40;9.75;;;1.92;;
24157;SDS011;12316;50.904;4.200;2022-09-17T13:21:28;9.65;;;1.67;;
24157;SDS011;12316;50.904;4.200;2022-09-17T13:23:54;7.00;;;1.40;;
24157;SDS011;12316;50.904;4.200;2022-09-17T13:26:21;12.77;;;1.80;;
24157;SDS011;12316;50.904;4.200;2022-09-17T13:28:59;7.43;;;1.40;;
24157;SDS011;12316;50.904;4.200;2022-09-17T13:39:30;10.80;;;1.30;;
24157;SDS011;12316;50.904;4.200;2022-09-17T13:44:50;10.40;;;1.58;;
24157;SDS011;12316;50.904;4.200;2022-09-17T13:47:29;5.38;;;1.55;;
24157;SDS011;12316;50.904;4.200;2022-09-17T13:50:01;8.57;;;1.40;;
24157;SDS011;12316;50.904;4.200;2022-09-17T13:52:37;10.05;;;1.88;;
24157;SDS011;12316;50.904;4.200;2022-09-17T13:55:08;7.80;;;1.45;;
24157;SDS011;12316;50.904;4.200;2022-09-17T13:57:53;5.70;;;1.33;;
24157;SDS011;12316;50.904;4.200;2022-09-17T14:21:45;23.58;;;2.50;;
24157;SDS011;12316;50.904;4.200;2022-09-17T14:24:32;17.48;;;2.10;;
24157;SDS011;12316;50.904;4.200;2022-09-17T14:29:37;6.43;;;1.40;;
24157;SDS011;12316;50.904;4.200;2022-09-17T14:32:15;9.25;;;1.70;;
24157;SDS011;12316;50.904;4.200;2022-09-17T14:34:46;8.75;;;1.38;;
24157;SDS011;12316;50.904;4.200;2022-09-17T14:37:14;7.55;;;1.65;;
24157;SDS011;12316;50.904;4.200;2022-09-17T14:39:43;12.93;;;1.80;;
24157;SDS011;12316;50.904;4.200;2022-09-17T14:42:14;11.82;;;1.95;;
24157;SDS011;12316;50.904;4.200;2022-09-17T14:44:55;12.20;;;1.85;;
24157;SDS011;12316;50.904;4.200;2022-09-17T14:47:23;17.75;;;2.38;;
24157;SDS011;12316;50.904;4.200;2022-09-17T14:49:51;13.32;;;1.98;;
24157;SDS011;12316;50.904;4.200;2022-09-17T14:55:09;11.52;;;1.70;;
24157;SDS011;12316;50.904;4.200;2022-09-17T14:57:52;11.77;;;1.90;;
24157;SDS011;12316;50.904;4.200;2022-09-17T15:00:23;10.25;;;1.88;;
24157;SDS011;12316;50.904;4.200;2022-09-17T15:02:53;9.27;;;1.77;;
24157;SDS011;12316;50.904;4.200;2022-09-17T15:08:12;9.20;;;2.47;;
24157;SDS011;12316;50.904;4.200;2022-09-17T15:10:47;10.40;;;2.20;;
24157;SDS011;12316;50.904;4.200;2022-09-17T15:13:14;11.65;;;2.30;;
24157;SDS011;12316;50.904;4.200;2022-09-17T15:21:42;7.45;;;2.05;;
24157;SDS011;12316;50.904;4.200;2022-09-17T15:26:41;6.45;;;2.00;;
24157;SDS011;12316;50.904;4.200;2022-09-17T15:29:11;8.50;;;1.90;;
24157;SDS011;12316;50.904;4.200;2022-09-17T15:31:38;7.72;;;1.63;;
24157;SDS011;12316;50.904;4.200;2022-09-17T15:34:05;7.82;;;1.55;;
24157;SDS011;12316;50.904;4.200;2022-09-17T15:36:31;5.95;;;1.50;;
24157;SDS011;12316;50.904;4.200;2022-09-17T15:38:57;8.75;;;1.20;;
24157;SDS011;12316;50.904;4.200;2022-09-17T15:41:27;6.72;;;1.08;;
24157;SDS011;12316;50.904;4.200;2022-09-17T15:44:39;6.05;;;1.13;;
24157;SDS011;12316;50.904;4.200;2022-09-17T15:46:44;5.80;;;0.90;;
24157;SDS011;12316;50.904;4.200;2022-09-17T15:51:53;4.90;;;0.82;;
24157;SDS011;12316;50.904;4.200;2022-09-17T15:54:29;6.18;;;1.20;;
24157;SDS011;12316;50.904;4.200;2022-09-17T15:56:56;5.10;;;1.10;;
24157;SDS011;12316;50.904;4.200;2022-09-17T15:59:28;4.80;;;1.02;;
24157;SDS011;12316;50.904;4.200;2022-09-17T16:01:56;4.38;;;0.80;;
24157;SDS011;12316;50.904;4.200;2022-09-17T16:04:24;5.45;;;1.05;;
24157;SDS011;12316;50.904;4.200;2022-09-17T16:06:58;6.38;;;1.15;;
24157;SDS011;12316;50.904;4.200;2022-09-17T16:09:40;5.25;;;1.10;;
24157;SDS011;12316;50.904;4.200;2022-09-17T16:12:15;5.07;;;1.05;;
24157;SDS011;12316;50.904;4.200;2022-09-17T16:14:43;5.93;;;1.20;;
24157;SDS011;12316;50.904;4.200;2022-09-17T16:17:18;5.50;;;1.60;;
24157;SDS011;12316;50.904;4.200;2022-09-17T16:19:45;7.18;;;1.40;;
24157;SDS011;12316;50.904;4.200;2022-09-17T16:22:11;7.15;;;1.38;;
24157;SDS011;12316;50.904;4.200;2022-09-17T16:24:36;4.03;;;1.13;;
24157;SDS011;12316;50.904;4.200;2022-09-17T16:27:03;6.32;;;1.48;;
24157;SDS011;12316;50.904;4.200;2022-09-17T16:29:29;7.50;;;1.48;;
24157;SDS011;12316;50.904;4.200;2022-09-17T16:31:55;7.32;;;1.70;;
24157;SDS011;12316;50.904;4.200;2022-09-17T16:34:21;5.15;;;1.60;;
24157;SDS011;12316;50.904;4.200;2022-09-17T16:36:46;6.82;;;1.67;;
24157;SDS011;12316;50.904;4.200;2022-09-17T16:39:14;7.50;;;1.80;;
24157;SDS011;12316;50.904;4.200;2022-09-17T16:41:40;8.57;;;2.10;;
24157;SDS011;12316;50.904;4.200;2022-09-17T16:44:05;6.40;;;2.00;;
24157;SDS011;12316;50.904;4.200;2022-09-17T16:46:31;7.90;;;1.95;;
24157;SDS011;12316;50.904;4.200;2022-09-17T16:48:57;6.82;;;1.90;;
24157;SDS011;12316;50.904;4.200;2022-09-17T16:51:24;11.43;;;2.10;;
24157;SDS011;12316;50.904;4.200;2022-09-17T16:53:50;9.00;;;1.70;;
24157;SDS011;12316;50.904;4.200;2022-09-17T16:56:16;9.35;;;1.65;;
24157;SDS011;12316;50.904;4.200;2022-09-17T16:58:42;9.73;;;2.03;;
24157;SDS011;12316;50.904;4.200;2022-09-17T17:01:08;6.30;;;1.73;;
24157;SDS011;12316;50.904;4.200;2022-09-17T17:03:35;10.35;;;2.47;;
24157;SDS011;12316;50.904;4.200;2022-09-17T17:06:00;11.27;;;1.80;;
24157;SDS011;12316;50.904;4.200;2022-09-17T17:08:27;10.75;;;1.90;;
24157;SDS011;12316;50.904;4.200;2022-09-17T17:10:55;10.55;;;2.17;;
24157;SDS011;12316;50.904;4.200;2022-09-17T17:13:20;9.85;;;2.00;;
24157;SDS011;12316;50.904;4.200;2022-09-17T17:15:46;12.43;;;2.20;;
24157;SDS011;12316;50.904;4.200;2022-09-17T17:18:12;13.80;;;2.10;;
24157;SDS011;12316;50.904;4.200;2022-09-17T17:20:38;15.02;;;2.25;;
24157;SDS011;12316;50.904;4.200;2022-09-17T17:23:03;13.07;;;2.20;;
24157;SDS011;12316;50.904;4.200;2022-09-17T17:25:29;8.27;;;2.30;;
24157;SDS011;12316;50.904;4.200;2022-09-17T17:27:56;17.92;;;2.58;;
24157;SDS011;12316;50.904;4.200;2022-09-17T17:30:22;11.23;;;2.20;;
24157;SDS011;12316;50.904;4.200;2022-09-17T17:32:48;9.70;;;2.20;;
24157;SDS011;12316;50.904;4.200;2022-09-17T17:35:15;10.90;;;2.60;;
24157;SDS011;12316;50.904;4.200;2022-09-17T17:37:41;12.82;;;2.40;;
24157;SDS011;12316;50.904;4.200;2022-09-17T17:40:07;13.40;;;2.45;;
24157;SDS011;12316;50.904;4.200;2022-09-17T17:42:34;11.52;;;2.78;;
24157;SDS011;12316;50.904;4.200;2022-09-17T17:45:06;12.17;;;2.57;;
24157;SDS011;12316;50.904;4.200;2022-09-17T17:47:32;9.32;;;2.65;;
24157;SDS011;12316;50.904;4.200;2022-09-17T17:49:58;12.38;;;2.60;;
24157;SDS011;12316;50.904;4.200;2022-09-17T17:52:24;10.88;;;2.80;;
24157;SDS011;12316;50.904;4.200;2022-09-17T17:54:49;11.40;;;3.00;;
24157;SDS011;12316;50.904;4.200;2022-09-17T17:57:15;18.92;;;2.90;;
24157;SDS011;12316;50.904;4.200;2022-09-17T17:59:41;13.75;;;3.05;;
24157;SDS011;12316;50.904;4.200;2022-09-17T18:02:06;14.32;;;2.95;;
24157;SDS011;12316;50.904;4.200;2022-09-17T18:04:33;14.85;;;3.13;;
24157;SDS011;12316;50.904;4.200;2022-09-17T18:06:58;15.10;;;2.95;;
24157;SDS011;12316;50.904;4.200;2022-09-17T18:09:24;14.35;;;2.88;;
24157;SDS011;12316;50.904;4.200;2022-09-17T18:11:50;14.95;;;2.90;;
24157;SDS011;12316;50.904;4.200;2022-09-17T18:14:16;12.45;;;2.90;;
24157;SDS011;12316;50.904;4.200;2022-09-17T18:16:41;16.38;;;3.40;;
24157;SDS011;12316;50.904;4.200;2022-09-17T18:19:10;11.80;;;2.70;;
24157;SDS011;12316;50.904;4.200;2022-09-17T18:21:36;9.60;;;2.70;;
24157;SDS011;12316;50.904;4.200;2022-09-17T18:24:02;11.63;;;2.95;;
24157;SDS011;12316;50.904;4.200;2022-09-17T18:26:28;14.70;;;3.33;;